sensor_id;sensor_type;location;lat;lon;timestamp;P1;durP1;ratioP1;P2;durP2;ratioP2
64857;SDS011;51335;51.148;6.950;2024-02-14T00:00:28;4.20;;;2.20;;
64857;SDS011;51335;51.148;6.950;2024-02-14T00:00:58;4.35;;;2.10;;
64857;SDS011;51335;51.148;6.950;2024-02-14T00:01:29;3.50;;;1.98;;
64857;SDS011;51335;51.148;6.950;2024-02-14T00:01:59;3.42;;;2.00;;
64857;SDS011;51335;51.148;6.950;2024-02-14T00:02:29;4.78;;;2.10;;
64857;SDS011;51335;51.148;6.950;2024-02-14T00:02:59;4.28;;;2.20;;
64857;SDS011;51335;51.148;6.950;2024-02-14T00:03:30;4.75;;;1.80;;
64857;SDS011;51335;51.148;6.950;2024-02-14T00:04:00;6.03;;;2.20;;
64857;SDS011;51335;51.148;6.950;2024-02-14T00:04:30;6.03;;;2.13;;
64857;SDS011;51335;51.148;6.950;2024-02-14T00:05:00;6.07;;;2.28;;
64857;SDS011;51335;51.148;6.950;2024-02-14T00:05:30;4.63;;;2.10;;
64857;SDS011;51335;51.148;6.950;2024-02-14T00:06:01;4.40;;;2.10;;
64857;SDS011;51335;51.148;6.950;2024-02-14T00:06:36;7.55;;;2.13;;
64857;SDS011;51335;51.148;6.950;2024-02-14T00:07:06;6.30;;;2.30;;
64857;SDS011;51335;51.148;6.950;2024-02-14T00:07:39;3.90;;;2.10;;
64857;SDS011;51335;51.148;6.950;2024-02-14T00:08:09;6.93;;;2.30;;
64857;SDS011;51335;51.148;6.950;2024-02-14T00:08:40;6.05;;;2.20;;
64857;SDS011;51335;51.148;6.950;2024-02-14T00:09:10;5.10;;;2.10;;
64857;SDS011;51335;51.148;6.950;2024-02-14T00:09:40;7.80;;;2.25;;
64857;SDS011;51335;51.148;6.950;2024-02-14T00:10:11;5.75;;;2.45;;
64857;SDS011;51335;51.148;6.950;2024-02-14T00:10:41;4.22;;;2.05;;
64857;SDS011;51335;51.148;6.950;2024-02-14T00:11:11;3.60;;;2.05;;
64857;SDS011;51335;51.148;6.950;2024-02-14T00:11:41;4.57;;;2.00;;
64857;SDS011;51335;51.148;6.950;2024-02-14T00:12:12;4.50;;;2.10;;
64857;SDS011;51335;51.148;6.950;2024-02-14T00:12:42;7.18;;;2.30;;
64857;SDS011;51335;51.148;6.950;2024-02-14T00:13:12;4.40;;;2.03;;
64857;SDS011;51335;51.148;6.950;2024-02-14T00:13:42;5.75;;;2.22;;
64857;SDS011;51335;51.148;6.950;2024-02-14T00:14:13;4.78;;;2.00;;
64857;SDS011;51335;51.148;6.950;2024-02-14T00:14:43;4.30;;;1.85;;
64857;SDS011;51335;51.148;6.950;2024-02-14T00:15:13;5.10;;;2.05;;
64857;SDS011;51335;51.148;6.950;2024-02-14T00:15:44;5.40;;;2.30;;
64857;SDS011;51335;51.148;6.950;2024-02-14T00:16:14;8.02;;;2.33;;
64857;SDS011;51335;51.148;6.950;2024-02-14T00:16:44;10.77;;;2.63;;
64857;SDS011;51335;51.148;6.950;2024-02-14T00:17:14;4.53;;;2.00;;
64857;SDS011;51335;51.148;6.950;2024-02-14T00:17:45;4.13;;;2.00;;
64857;SDS011;51335;51.148;6.950;2024-02-14T00:18:15;5.88;;;2.13;;
64857;SDS011;51335;51.148;6.950;2024-02-14T00:18:45;4.47;;;1.98;;
64857;SDS011;51335;51.148;6.950;2024-02-14T00:19:15;3.88;;;2.17;;
64857;SDS011;51335;51.148;6.950;2024-02-14T00:19:45;7.15;;;2.00;;
64857;SDS011;51335;51.148;6.950;2024-02-14T00:20:16;3.83;;;2.10;;
64857;SDS011;51335;51.148;6.950;2024-02-14T00:20:46;4.90;;;2.22;;
64857;SDS011;51335;51.148;6.950;2024-02-14T00:21:16;4.53;;;2.13;;
64857;SDS011;51335;51.148;6.950;2024-02-14T00:21:47;7.55;;;2.30;;
64857;SDS011;51335;51.148;6.950;2024-02-14T00:22:17;5.57;;;1.90;;
64857;SDS011;51335;51.148;6.950;2024-02-14T00:22:48;5.15;;;2.15;;
64857;SDS011;51335;51.148;6.950;2024-02-14T00:23:18;5.13;;;2.20;;
64857;SDS011;51335;51.148;6.950;2024-02-14T00:23:48;6.20;;;2.10;;
64857;SDS011;51335;51.148;6.950;2024-02-14T00:24:18;6.13;;;2.00;;
64857;SDS011;51335;51.148;6.950;2024-02-14T00:24:49;6.10;;;2.50;;
64857;SDS011;51335;51.148;6.950;2024-02-14T00:25:19;5.05;;;2.08;;
64857;SDS011;51335;51.148;6.950;2024-02-14T00:25:49;5.30;;;2.65;;
64857;SDS011;51335;51.148;6.950;2024-02-14T00:26:19;3.63;;;1.90;;
64857;SDS011;51335;51.148;6.950;2024-02-14T00:26:50;5.88;;;2.45;;
64857;SDS011;51335;51.148;6.950;2024-02-14T00:27:20;5.22;;;2.08;;
64857;SDS011;51335;51.148;6.950;2024-02-14T00:27:50;5.70;;;2.03;;
64857;SDS011;51335;51.148;6.950;2024-02-14T00:28:20;5.28;;;2.28;;
64857;SDS011;51335;51.148;6.950;2024-02-14T00:28:51;8.18;;;2.45;;
64857;SDS011;51335;51.148;6.950;2024-02-14T00:29:21;4.97;;;2.10;;
64857;SDS011;51335;51.148;6.950;2024-02-14T00:29:51;6.30;;;1.92;;
64857;SDS011;51335;51.148;6.950;2024-02-14T00:30:21;4.95;;;2.30;;
64857;SDS011;51335;51.148;6.950;2024-02-14T00:30:52;5.00;;;2.08;;
64857;SDS011;51335;51.148;6.950;2024-02-14T00:31:22;3.40;;;2.03;;
64857;SDS011;51335;51.148;6.950;2024-02-14T00:31:52;8.75;;;2.42;;
64857;SDS011;51335;51.148;6.950;2024-02-14T00:32:22;3.92;;;2.03;;
64857;SDS011;51335;51.148;6.950;2024-02-14T00:32:53;4.22;;;2.30;;
64857;SDS011;51335;51.148;6.950;2024-02-14T00:33:23;5.70;;;1.95;;
64857;SDS011;51335;51.148;6.950;2024-02-14T00:33:53;4.72;;;2.08;;
64857;SDS011;51335;51.148;6.950;2024-02-14T00:34:25;4.07;;;2.00;;
64857;SDS011;51335;51.148;6.950;2024-02-14T00:34:55;6.70;;;1.98;;
64857;SDS011;51335;51.148;6.950;2024-02-14T00:35:25;4.90;;;1.95;;
64857;SDS011;51335;51.148;6.950;2024-02-14T00:35:56;7.68;;;2.20;;
64857;SDS011;51335;51.148;6.950;2024-02-14T00:36:26;5.13;;;2.20;;
64857;SDS011;51335;51.148;6.950;2024-02-14T00:36:56;5.30;;;2.10;;
64857;SDS011;51335;51.148;6.950;2024-02-14T00:37:26;5.50;;;2.10;;
64857;SDS011;51335;51.148;6.950;2024-02-14T00:37:56;3.00;;;2.05;;
64857;SDS011;51335;51.148;6.950;2024-02-14T00:38:27;5.00;;;2.25;;
64857;SDS011;51335;51.148;6.950;2024-02-14T00:38:57;4.38;;;1.90;;
64857;SDS011;51335;51.148;6.950;2024-02-14T00:39:27;7.75;;;2.30;;
64857;SDS011;51335;51.148;6.950;2024-02-14T00:39:57;6.53;;;2.08;;
64857;SDS011;51335;51.148;6.950;2024-02-14T00:40:28;5.22;;;2.25;;
64857;SDS011;51335;51.148;6.950;2024-02-14T00:40:58;6.75;;;2.47;;
64857;SDS011;51335;51.148;6.950;2024-02-14T00:41:28;5.70;;;2.30;;
64857;SDS011;51335;51.148;6.950;2024-02-14T00:41:58;5.03;;;2.38;;
64857;SDS011;51335;51.148;6.950;2024-02-14T00:42:29;4.72;;;2.10;;
64857;SDS011;51335;51.148;6.950;2024-02-14T00:42:59;6.15;;;2.28;;
64857;SDS011;51335;51.148;6.950;2024-02-14T00:43:29;5.88;;;2.20;;
64857;SDS011;51335;51.148;6.950;2024-02-14T00:43:59;3.10;;;1.80;;
64857;SDS011;51335;51.148;6.950;2024-02-14T00:44:30;6.80;;;2.20;;
64857;SDS011;51335;51.148;6.950;2024-02-14T00:45:00;7.80;;;2.30;;
64857;SDS011;51335;51.148;6.950;2024-02-14T00:45:30;4.38;;;2.25;;
64857;SDS011;51335;51.148;6.950;2024-02-14T00:46:01;7.63;;;2.45;;
64857;SDS011;51335;51.148;6.950;2024-02-14T00:46:31;4.07;;;2.03;;
64857;SDS011;51335;51.148;6.950;2024-02-14T00:47:01;4.78;;;2.03;;
64857;SDS011;51335;51.148;6.950;2024-02-14T00:47:34;6.22;;;2.00;;
64857;SDS011;51335;51.148;6.950;2024-02-14T00:48:05;6.28;;;2.20;;
64857;SDS011;51335;51.148;6.950;2024-02-14T00:48:36;4.95;;;2.10;;
64857;SDS011;51335;51.148;6.950;2024-02-14T00:49:06;4.85;;;2.03;;
64857;SDS011;51335;51.148;6.950;2024-02-14T00:49:36;6.50;;;2.08;;
64857;SDS011;51335;51.148;6.950;2024-02-14T00:50:06;5.22;;;2.20;;
64857;SDS011;51335;51.148;6.950;2024-02-14T00:50:37;3.88;;;2.28;;
64857;SDS011;51335;51.148;6.950;2024-02-14T00:51:07;5.43;;;2.20;;
64857;SDS011;51335;51.148;6.950;2024-02-14T00:51:37;3.58;;;1.80;;
64857;SDS011;51335;51.148;6.950;2024-02-14T00:52:07;5.47;;;2.03;;
64857;SDS011;51335;51.148;6.950;2024-02-14T00:52:38;7.07;;;2.50;;
64857;SDS011;51335;51.148;6.950;2024-02-14T00:53:08;5.47;;;1.92;;
64857;SDS011;51335;51.148;6.950;2024-02-14T00:53:38;6.25;;;2.10;;
64857;SDS011;51335;51.148;6.950;2024-02-14T00:54:08;2.35;;;1.63;;
64857;SDS011;51335;51.148;6.950;2024-02-14T00:54:39;8.23;;;2.00;;
64857;SDS011;51335;51.148;6.950;2024-02-14T00:55:09;4.55;;;1.90;;
64857;SDS011;51335;51.148;6.950;2024-02-14T00:55:39;3.08;;;1.90;;
64857;SDS011;51335;51.148;6.950;2024-02-14T00:56:10;6.40;;;1.80;;
64857;SDS011;51335;51.148;6.950;2024-02-14T00:56:40;3.25;;;1.60;;
64857;SDS011;51335;51.148;6.950;2024-02-14T00:57:10;2.85;;;1.65;;
64857;SDS011;51335;51.148;6.950;2024-02-14T00:57:40;3.03;;;1.60;;
64857;SDS011;51335;51.148;6.950;2024-02-14T00:58:11;4.57;;;1.60;;
64857;SDS011;51335;51.148;6.950;2024-02-14T00:58:41;3.20;;;1.60;;
64857;SDS011;51335;51.148;6.950;2024-02-14T00:59:11;3.92;;;1.80;;
64857;SDS011;51335;51.148;6.950;2024-02-14T00:59:41;3.17;;;1.60;;
64857;SDS011;51335;51.148;6.950;2024-02-14T01:00:12;3.00;;;1.58;;
64857;SDS011;51335;51.148;6.950;2024-02-14T01:00:42;5.88;;;1.80;;
64857;SDS011;51335;51.148;6.950;2024-02-14T01:01:12;2.13;;;1.30;;
64857;SDS011;51335;51.148;6.950;2024-02-14T01:01:42;2.35;;;1.50;;
64857;SDS011;51335;51.148;6.950;2024-02-14T01:02:13;3.03;;;1.48;;
64857;SDS011;51335;51.148;6.950;2024-02-14T01:02:43;2.20;;;1.42;;
64857;SDS011;51335;51.148;6.950;2024-02-14T01:03:13;3.33;;;1.30;;
64857;SDS011;51335;51.148;6.950;2024-02-14T01:03:44;2.75;;;1.30;;
64857;SDS011;51335;51.148;6.950;2024-02-14T01:04:14;3.75;;;1.20;;
64857;SDS011;51335;51.148;6.950;2024-02-14T01:04:44;4.88;;;1.60;;
64857;SDS011;51335;51.148;6.950;2024-02-14T01:05:14;3.03;;;1.20;;
64857;SDS011;51335;51.148;6.950;2024-02-14T01:05:45;2.47;;;1.35;;
64857;SDS011;51335;51.148;6.950;2024-02-14T01:06:15;2.97;;;1.30;;
64857;SDS011;51335;51.148;6.950;2024-02-14T01:06:45;3.88;;;1.40;;
64857;SDS011;51335;51.148;6.950;2024-02-14T01:07:15;4.97;;;1.50;;
64857;SDS011;51335;51.148;6.950;2024-02-14T01:07:46;3.17;;;1.30;;
64857;SDS011;51335;51.148;6.950;2024-02-14T01:08:16;4.80;;;1.50;;
64857;SDS011;51335;51.148;6.950;2024-02-14T01:08:46;2.88;;;1.23;;
64857;SDS011;51335;51.148;6.950;2024-02-14T01:09:17;2.80;;;1.20;;
64857;SDS011;51335;51.148;6.950;2024-02-14T01:09:48;3.05;;;1.20;;
64857;SDS011;51335;51.148;6.950;2024-02-14T01:10:18;3.47;;;1.20;;
64857;SDS011;51335;51.148;6.950;2024-02-14T01:10:49;3.75;;;1.30;;
64857;SDS011;51335;51.148;6.950;2024-02-14T01:11:19;4.38;;;1.20;;
64857;SDS011;51335;51.148;6.950;2024-02-14T01:11:49;2.25;;;1.10;;
64857;SDS011;51335;51.148;6.950;2024-02-14T01:12:19;3.40;;;1.15;;
64857;SDS011;51335;51.148;6.950;2024-02-14T01:12:50;1.60;;;1.20;;
64857;SDS011;51335;51.148;6.950;2024-02-14T01:13:20;2.60;;;1.27;;
64857;SDS011;51335;51.148;6.950;2024-02-14T01:13:50;2.47;;;1.10;;
64857;SDS011;51335;51.148;6.950;2024-02-14T01:14:20;3.17;;;1.27;;
64857;SDS011;51335;51.148;6.950;2024-02-14T01:14:51;3.22;;;1.20;;
64857;SDS011;51335;51.148;6.950;2024-02-14T01:15:21;3.17;;;1.10;;
64857;SDS011;51335;51.148;6.950;2024-02-14T01:15:51;2.60;;;1.20;;
64857;SDS011;51335;51.148;6.950;2024-02-14T01:16:21;4.20;;;1.10;;
64857;SDS011;51335;51.148;6.950;2024-02-14T01:16:54;2.05;;;1.10;;
64857;SDS011;51335;51.148;6.950;2024-02-14T01:17:24;4.22;;;1.10;;
64857;SDS011;51335;51.148;6.950;2024-02-14T01:17:54;3.67;;;1.17;;
64857;SDS011;51335;51.148;6.950;2024-02-14T01:18:24;5.35;;;1.30;;
64857;SDS011;51335;51.148;6.950;2024-02-14T01:18:55;2.67;;;1.15;;
64857;SDS011;51335;51.148;6.950;2024-02-14T01:19:25;2.92;;;1.20;;
64857;SDS011;51335;51.148;6.950;2024-02-14T01:19:55;2.95;;;1.10;;
64857;SDS011;51335;51.148;6.950;2024-02-14T01:20:25;5.93;;;1.95;;
64857;SDS011;51335;51.148;6.950;2024-02-14T01:20:56;2.58;;;1.10;;
64857;SDS011;51335;51.148;6.950;2024-02-14T01:21:27;1.55;;;1.30;;
64857;SDS011;51335;51.148;6.950;2024-02-14T01:21:57;3.33;;;1.17;;
64857;SDS011;51335;51.148;6.950;2024-02-14T01:22:27;2.38;;;1.02;;
64857;SDS011;51335;51.148;6.950;2024-02-14T01:22:58;3.90;;;1.27;;
64857;SDS011;51335;51.148;6.950;2024-02-14T01:23:28;3.92;;;1.20;;
64857;SDS011;51335;51.148;6.950;2024-02-14T01:23:58;1.77;;;1.20;;
64857;SDS011;51335;51.148;6.950;2024-02-14T01:24:28;3.83;;;1.27;;
64857;SDS011;51335;51.148;6.950;2024-02-14T01:24:58;2.25;;;1.25;;
64857;SDS011;51335;51.148;6.950;2024-02-14T01:25:29;3.42;;;1.10;;
64857;SDS011;51335;51.148;6.950;2024-02-14T01:25:59;3.72;;;1.20;;
64857;SDS011;51335;51.148;6.950;2024-02-14T01:26:29;4.00;;;1.42;;
64857;SDS011;51335;51.148;6.950;2024-02-14T01:26:59;2.42;;;1.00;;
64857;SDS011;51335;51.148;6.950;2024-02-14T01:27:30;5.43;;;1.10;;
64857;SDS011;51335;51.148;6.950;2024-02-14T01:28:00;2.17;;;1.10;;
64857;SDS011;51335;51.148;6.950;2024-02-14T01:28:30;1.77;;;1.10;;
64857;SDS011;51335;51.148;6.950;2024-02-14T01:29:01;3.45;;;1.23;;
64857;SDS011;51335;51.148;6.950;2024-02-14T01:29:32;6.82;;;1.23;;
64857;SDS011;51335;51.148;6.950;2024-02-14T01:30:02;2.45;;;1.10;;
64857;SDS011;51335;51.148;6.950;2024-02-14T01:30:33;3.17;;;1.20;;
64857;SDS011;51335;51.148;6.950;2024-02-14T01:31:03;2.40;;;1.10;;
64857;SDS011;51335;51.148;6.950;2024-02-14T01:31:33;2.85;;;1.10;;
64857;SDS011;51335;51.148;6.950;2024-02-14T01:32:04;2.63;;;1.00;;
64857;SDS011;51335;51.148;6.950;2024-02-14T01:32:34;2.53;;;1.27;;
64857;SDS011;51335;51.148;6.950;2024-02-14T01:33:04;2.72;;;1.23;;
64857;SDS011;51335;51.148;6.950;2024-02-14T01:33:35;2.83;;;1.10;;
64857;SDS011;51335;51.148;6.950;2024-02-14T01:34:05;1.33;;;1.00;;
64857;SDS011;51335;51.148;6.950;2024-02-14T01:34:35;2.38;;;1.10;;
64857;SDS011;51335;51.148;6.950;2024-02-14T01:35:05;4.35;;;1.20;;
64857;SDS011;51335;51.148;6.950;2024-02-14T01:35:36;3.67;;;1.20;;
64857;SDS011;51335;51.148;6.950;2024-02-14T01:36:06;2.55;;;1.10;;
64857;SDS011;51335;51.148;6.950;2024-02-14T01:36:36;4.80;;;1.20;;
64857;SDS011;51335;51.148;6.950;2024-02-14T01:37:07;3.28;;;1.30;;
64857;SDS011;51335;51.148;6.950;2024-02-14T01:37:37;1.83;;;1.00;;
64857;SDS011;51335;51.148;6.950;2024-02-14T01:38:07;3.63;;;1.25;;
64857;SDS011;51335;51.148;6.950;2024-02-14T01:38:37;2.65;;;1.20;;
64857;SDS011;51335;51.148;6.950;2024-02-14T01:39:08;4.47;;;1.10;;
64857;SDS011;51335;51.148;6.950;2024-02-14T01:39:38;4.38;;;1.02;;
64857;SDS011;51335;51.148;6.950;2024-02-14T01:40:08;3.50;;;1.00;;
64857;SDS011;51335;51.148;6.950;2024-02-14T01:40:42;2.42;;;1.00;;
64857;SDS011;51335;51.148;6.950;2024-02-14T01:41:13;2.58;;;1.30;;
64857;SDS011;51335;51.148;6.950;2024-02-14T01:41:46;2.53;;;1.17;;
64857;SDS011;51335;51.148;6.950;2024-02-14T01:42:17;3.67;;;1.20;;
64857;SDS011;51335;51.148;6.950;2024-02-14T01:42:47;2.75;;;1.20;;
64857;SDS011;51335;51.148;6.950;2024-02-14T01:43:19;3.33;;;1.38;;
64857;SDS011;51335;51.148;6.950;2024-02-14T01:43:49;3.38;;;1.20;;
64857;SDS011;51335;51.148;6.950;2024-02-14T01:44:20;3.83;;;1.25;;
64857;SDS011;51335;51.148;6.950;2024-02-14T01:44:50;2.10;;;1.10;;
64857;SDS011;51335;51.148;6.950;2024-02-14T01:45:20;4.15;;;1.40;;
64857;SDS011;51335;51.148;6.950;2024-02-14T01:45:51;4.15;;;1.40;;
64857;SDS011;51335;51.148;6.950;2024-02-14T01:46:21;2.33;;;1.10;;
64857;SDS011;51335;51.148;6.950;2024-02-14T01:46:52;2.35;;;1.00;;
64857;SDS011;51335;51.148;6.950;2024-02-14T01:47:22;1.30;;;0.90;;
64857;SDS011;51335;51.148;6.950;2024-02-14T01:47:52;2.28;;;1.00;;
64857;SDS011;51335;51.148;6.950;2024-02-14T01:48:23;5.65;;;1.10;;
64857;SDS011;51335;51.148;6.950;2024-02-14T01:48:53;1.88;;;1.20;;
64857;SDS011;51335;51.148;6.950;2024-02-14T01:49:24;2.17;;;1.23;;
64857;SDS011;51335;51.148;6.950;2024-02-14T01:49:54;1.50;;;1.08;;
64857;SDS011;51335;51.148;6.950;2024-02-14T01:50:24;4.43;;;1.25;;
64857;SDS011;51335;51.148;6.950;2024-02-14T01:50:55;2.72;;;1.20;;
64857;SDS011;51335;51.148;6.950;2024-02-14T01:51:25;2.42;;;1.30;;
64857;SDS011;51335;51.148;6.950;2024-02-14T01:51:56;3.95;;;1.10;;
64857;SDS011;51335;51.148;6.950;2024-02-14T01:52:31;2.25;;;1.10;;
64857;SDS011;51335;51.148;6.950;2024-02-14T01:53:01;1.90;;;1.20;;
64857;SDS011;51335;51.148;6.950;2024-02-14T01:53:32;3.60;;;1.10;;
64857;SDS011;51335;51.148;6.950;2024-02-14T01:54:02;2.10;;;1.10;;
64857;SDS011;51335;51.148;6.950;2024-02-14T01:54:33;2.22;;;1.30;;
64857;SDS011;51335;51.148;6.950;2024-02-14T01:55:04;3.30;;;1.10;;
64857;SDS011;51335;51.148;6.950;2024-02-14T01:55:35;1.60;;;1.10;;
64857;SDS011;51335;51.148;6.950;2024-02-14T01:56:06;2.42;;;1.00;;
64857;SDS011;51335;51.148;6.950;2024-02-14T01:56:36;3.55;;;1.25;;
64857;SDS011;51335;51.148;6.950;2024-02-14T01:57:07;2.10;;;1.00;;
64857;SDS011;51335;51.148;6.950;2024-02-14T01:57:39;2.35;;;1.15;;
64857;SDS011;51335;51.148;6.950;2024-02-14T01:58:09;1.65;;;1.02;;
64857;SDS011;51335;51.148;6.950;2024-02-14T01:58:39;2.50;;;1.30;;
64857;SDS011;51335;51.148;6.950;2024-02-14T01:59:10;3.60;;;1.40;;
64857;SDS011;51335;51.148;6.950;2024-02-14T01:59:40;4.22;;;1.17;;
64857;SDS011;51335;51.148;6.950;2024-02-14T02:00:11;2.53;;;1.00;;
64857;SDS011;51335;51.148;6.950;2024-02-14T02:00:42;2.65;;;1.02;;
64857;SDS011;51335;51.148;6.950;2024-02-14T02:01:13;1.40;;;1.00;;
64857;SDS011;51335;51.148;6.950;2024-02-14T02:01:44;4.00;;;1.30;;
64857;SDS011;51335;51.148;6.950;2024-02-14T02:02:14;1.45;;;0.95;;
64857;SDS011;51335;51.148;6.950;2024-02-14T02:02:45;2.75;;;1.17;;
64857;SDS011;51335;51.148;6.950;2024-02-14T02:03:15;3.00;;;1.00;;
64857;SDS011;51335;51.148;6.950;2024-02-14T02:03:46;2.67;;;1.13;;
64857;SDS011;51335;51.148;6.950;2024-02-14T02:04:16;3.78;;;1.30;;
64857;SDS011;51335;51.148;6.950;2024-02-14T02:04:46;1.92;;;0.98;;
64857;SDS011;51335;51.148;6.950;2024-02-14T02:05:16;3.53;;;1.10;;
64857;SDS011;51335;51.148;6.950;2024-02-14T02:05:47;1.88;;;0.93;;
64857;SDS011;51335;51.148;6.950;2024-02-14T02:06:17;3.83;;;1.08;;
64857;SDS011;51335;51.148;6.950;2024-02-14T02:06:47;1.65;;;1.00;;
64857;SDS011;51335;51.148;6.950;2024-02-14T02:07:18;1.33;;;0.95;;
64857;SDS011;51335;51.148;6.950;2024-02-14T02:07:48;3.72;;;1.10;;
64857;SDS011;51335;51.148;6.950;2024-02-14T02:08:20;3.80;;;1.20;;
64857;SDS011;51335;51.148;6.950;2024-02-14T02:08:51;1.90;;;1.00;;
64857;SDS011;51335;51.148;6.950;2024-02-14T02:09:21;2.13;;;1.15;;
64857;SDS011;51335;51.148;6.950;2024-02-14T02:09:52;2.53;;;1.10;;
64857;SDS011;51335;51.148;6.950;2024-02-14T02:10:22;4.65;;;1.10;;
64857;SDS011;51335;51.148;6.950;2024-02-14T02:10:52;2.10;;;1.02;;
64857;SDS011;51335;51.148;6.950;2024-02-14T02:11:23;2.08;;;1.00;;
64857;SDS011;51335;51.148;6.950;2024-02-14T02:11:54;1.90;;;0.90;;
64857;SDS011;51335;51.148;6.950;2024-02-14T02:12:25;3.50;;;1.33;;
64857;SDS011;51335;51.148;6.950;2024-02-14T02:12:58;2.40;;;1.27;;
64857;SDS011;51335;51.148;6.950;2024-02-14T02:13:29;2.15;;;1.20;;
64857;SDS011;51335;51.148;6.950;2024-02-14T02:13:59;3.63;;;1.00;;
64857;SDS011;51335;51.148;6.950;2024-02-14T02:14:29;2.33;;;1.00;;
64857;SDS011;51335;51.148;6.950;2024-02-14T02:14:59;4.38;;;1.30;;
64857;SDS011;51335;51.148;6.950;2024-02-14T02:15:30;2.35;;;1.17;;
64857;SDS011;51335;51.148;6.950;2024-02-14T02:16:00;3.47;;;1.25;;
64857;SDS011;51335;51.148;6.950;2024-02-14T02:16:30;2.03;;;1.10;;
64857;SDS011;51335;51.148;6.950;2024-02-14T02:17:00;2.05;;;1.00;;
64857;SDS011;51335;51.148;6.950;2024-02-14T02:17:31;3.15;;;1.00;;
64857;SDS011;51335;51.148;6.950;2024-02-14T02:18:02;3.97;;;1.30;;
64857;SDS011;51335;51.148;6.950;2024-02-14T02:18:34;2.22;;;1.00;;
64857;SDS011;51335;51.148;6.950;2024-02-14T02:19:04;2.50;;;1.02;;
64857;SDS011;51335;51.148;6.950;2024-02-14T02:19:34;1.33;;;1.10;;
64857;SDS011;51335;51.148;6.950;2024-02-14T02:20:04;2.53;;;1.10;;
64857;SDS011;51335;51.148;6.950;2024-02-14T02:20:35;1.75;;;1.13;;
64857;SDS011;51335;51.148;6.950;2024-02-14T02:21:06;1.70;;;1.08;;
64857;SDS011;51335;51.148;6.950;2024-02-14T02:21:36;2.65;;;1.00;;
64857;SDS011;51335;51.148;6.950;2024-02-14T02:22:06;1.63;;;1.00;;
64857;SDS011;51335;51.148;6.950;2024-02-14T02:22:37;2.28;;;1.13;;
64857;SDS011;51335;51.148;6.950;2024-02-14T02:23:07;1.17;;;0.98;;
64857;SDS011;51335;51.148;6.950;2024-02-14T02:23:37;2.35;;;1.10;;
64857;SDS011;51335;51.148;6.950;2024-02-14T02:24:07;2.10;;;1.00;;
64857;SDS011;51335;51.148;6.950;2024-02-14T02:24:37;1.80;;;1.00;;
64857;SDS011;51335;51.148;6.950;2024-02-14T02:25:08;2.03;;;1.17;;
64857;SDS011;51335;51.148;6.950;2024-02-14T02:25:38;3.17;;;1.20;;
64857;SDS011;51335;51.148;6.950;2024-02-14T02:26:08;1.63;;;1.00;;
64857;SDS011;51335;51.148;6.950;2024-02-14T02:26:39;1.73;;;0.98;;
64857;SDS011;51335;51.148;6.950;2024-02-14T02:27:09;2.60;;;1.17;;
64857;SDS011;51335;51.148;6.950;2024-02-14T02:27:39;4.93;;;1.15;;
64857;SDS011;51335;51.148;6.950;2024-02-14T02:28:10;1.88;;;1.20;;
64857;SDS011;51335;51.148;6.950;2024-02-14T02:28:40;1.95;;;1.00;;
64857;SDS011;51335;51.148;6.950;2024-02-14T02:29:10;3.28;;;1.05;;
64857;SDS011;51335;51.148;6.950;2024-02-14T02:29:40;3.45;;;1.00;;
64857;SDS011;51335;51.148;6.950;2024-02-14T02:30:11;2.40;;;0.90;;
64857;SDS011;51335;51.148;6.950;2024-02-14T02:30:41;3.58;;;1.08;;
64857;SDS011;51335;51.148;6.950;2024-02-14T02:31:11;2.35;;;1.00;;
64857;SDS011;51335;51.148;6.950;2024-02-14T02:31:41;1.85;;;0.90;;
64857;SDS011;51335;51.148;6.950;2024-02-14T02:32:12;4.03;;;0.98;;
64857;SDS011;51335;51.148;6.950;2024-02-14T02:32:42;2.80;;;1.00;;
64857;SDS011;51335;51.148;6.950;2024-02-14T02:33:12;3.58;;;0.90;;
64857;SDS011;51335;51.148;6.950;2024-02-14T02:33:43;2.25;;;1.00;;
64857;SDS011;51335;51.148;6.950;2024-02-14T02:34:13;3.05;;;1.00;;
64857;SDS011;51335;51.148;6.950;2024-02-14T02:34:43;3.03;;;1.05;;
64857;SDS011;51335;51.148;6.950;2024-02-14T02:35:14;2.00;;;0.90;;
64857;SDS011;51335;51.148;6.950;2024-02-14T02:35:44;1.98;;;0.98;;
64857;SDS011;51335;51.148;6.950;2024-02-14T02:36:14;2.40;;;1.05;;
64857;SDS011;51335;51.148;6.950;2024-02-14T02:36:44;1.88;;;0.90;;
64857;SDS011;51335;51.148;6.950;2024-02-14T02:37:15;2.10;;;1.00;;
64857;SDS011;51335;51.148;6.950;2024-02-14T02:37:45;2.88;;;1.15;;
64857;SDS011;51335;51.148;6.950;2024-02-14T02:38:16;2.00;;;1.00;;
64857;SDS011;51335;51.148;6.950;2024-02-14T02:38:46;1.45;;;1.02;;
64857;SDS011;51335;51.148;6.950;2024-02-14T02:39:16;2.42;;;1.08;;
64857;SDS011;51335;51.148;6.950;2024-02-14T02:39:47;1.90;;;1.00;;
64857;SDS011;51335;51.148;6.950;2024-02-14T02:40:17;1.95;;;1.02;;
64857;SDS011;51335;51.148;6.950;2024-02-14T02:40:47;2.58;;;1.00;;
64857;SDS011;51335;51.148;6.950;2024-02-14T02:41:18;2.25;;;1.00;;
64857;SDS011;51335;51.148;6.950;2024-02-14T02:41:48;2.63;;;1.00;;
64857;SDS011;51335;51.148;6.950;2024-02-14T02:42:18;3.97;;;1.05;;
64857;SDS011;51335;51.148;6.950;2024-02-14T02:42:48;2.33;;;0.98;;
64857;SDS011;51335;51.148;6.950;2024-02-14T02:43:19;4.05;;;1.00;;
64857;SDS011;51335;51.148;6.950;2024-02-14T02:43:49;2.92;;;1.08;;
64857;SDS011;51335;51.148;6.950;2024-02-14T02:44:19;2.70;;;0.93;;
64857;SDS011;51335;51.148;6.950;2024-02-14T02:44:52;3.08;;;1.15;;
64857;SDS011;51335;51.148;6.950;2024-02-14T02:45:23;1.60;;;1.00;;
64857;SDS011;51335;51.148;6.950;2024-02-14T02:45:53;1.35;;;0.93;;
64857;SDS011;51335;51.148;6.950;2024-02-14T02:46:23;1.65;;;0.90;;
64857;SDS011;51335;51.148;6.950;2024-02-14T02:46:54;2.83;;;1.27;;
64857;SDS011;51335;51.148;6.950;2024-02-14T02:47:24;2.45;;;0.90;;
64857;SDS011;51335;51.148;6.950;2024-02-14T02:47:54;1.50;;;1.00;;
64857;SDS011;51335;51.148;6.950;2024-02-14T02:48:25;2.08;;;1.10;;
64857;SDS011;51335;51.148;6.950;2024-02-14T02:48:55;2.15;;;0.98;;
64857;SDS011;51335;51.148;6.950;2024-02-14T02:49:25;1.48;;;0.88;;
64857;SDS011;51335;51.148;6.950;2024-02-14T02:49:55;1.38;;;0.82;;
64857;SDS011;51335;51.148;6.950;2024-02-14T02:50:26;3.40;;;1.00;;
64857;SDS011;51335;51.148;6.950;2024-02-14T02:50:56;2.38;;;1.13;;
64857;SDS011;51335;51.148;6.950;2024-02-14T02:51:26;3.78;;;1.75;;
64857;SDS011;51335;51.148;6.950;2024-02-14T02:51:56;2.10;;;1.10;;
64857;SDS011;51335;51.148;6.950;2024-02-14T02:52:27;2.40;;;0.90;;
64857;SDS011;51335;51.148;6.950;2024-02-14T02:52:57;3.65;;;1.00;;
64857;SDS011;51335;51.148;6.950;2024-02-14T02:53:27;0.90;;;0.73;;
64857;SDS011;51335;51.148;6.950;2024-02-14T02:53:57;2.33;;;0.90;;
64857;SDS011;51335;51.148;6.950;2024-02-14T02:54:28;1.20;;;0.93;;
64857;SDS011;51335;51.148;6.950;2024-02-14T02:54:58;1.80;;;1.10;;
64857;SDS011;51335;51.148;6.950;2024-02-14T02:55:28;2.13;;;0.93;;
64857;SDS011;51335;51.148;6.950;2024-02-14T02:55:58;2.75;;;1.42;;
64857;SDS011;51335;51.148;6.950;2024-02-14T02:56:29;1.40;;;0.77;;
64857;SDS011;51335;51.148;6.950;2024-02-14T02:56:59;2.22;;;1.10;;
64857;SDS011;51335;51.148;6.950;2024-02-14T02:57:29;1.48;;;0.90;;
64857;SDS011;51335;51.148;6.950;2024-02-14T02:57:59;2.20;;;0.90;;
64857;SDS011;51335;51.148;6.950;2024-02-14T02:58:29;1.80;;;0.80;;
64857;SDS011;51335;51.148;6.950;2024-02-14T02:59:00;1.85;;;0.85;;
64857;SDS011;51335;51.148;6.950;2024-02-14T02:59:30;1.80;;;0.90;;
64857;SDS011;51335;51.148;6.950;2024-02-14T03:00:00;2.22;;;1.00;;
64857;SDS011;51335;51.148;6.950;2024-02-14T03:00:30;2.55;;;1.00;;
64857;SDS011;51335;51.148;6.950;2024-02-14T03:01:01;2.65;;;1.17;;
64857;SDS011;51335;51.148;6.950;2024-02-14T03:01:37;2.58;;;1.02;;
64857;SDS011;51335;51.148;6.950;2024-02-14T03:02:07;3.10;;;0.90;;
64857;SDS011;51335;51.148;6.950;2024-02-14T03:02:38;1.73;;;0.80;;
64857;SDS011;51335;51.148;6.950;2024-02-14T03:03:09;1.52;;;0.90;;
64857;SDS011;51335;51.148;6.950;2024-02-14T03:03:39;1.67;;;0.73;;